Time;durP1;ratioP1;P1;durP2;ratioP2;P2;SDS_P1;SDS_P2;PMS_P1;PMS_P2;Temp;Humidity;BMP_temperature;BMP_pressure;BME280_temperature;BME280_humidity;BME280_pressure;Samples;Min_cycle;Max_cycle;Signal;HPM_P1;HPM_P2
2023/09/01 00:00:06;;;;;;;6.40;1.30;;;10.30;99.90;;;;;;4994200;28;20042;-75
2023/09/01 00:02:32;;;;;;;3.22;1.40;;;10.30;99.90;;;;;;4973733;28;20046;-75
2023/09/01 00:04:57;;;;;;;3.15;1.40;;;10.30;99.90;;;;;;4990674;28;20536;-74
2023/09/01 00:18:26;;;;;;;6.20;1.67;;;10.30;99.90;;;;;;4986936;28;20033;-74
2023/09/01 00:20:57;;;;;;;3.05;1.50;;;10.30;99.90;;;;;;5000686;28;20042;-75
2023/09/01 00:23:23;;;;;;;2.13;1.23;;;10.30;99.90;;;;;;5001738;28;20061;-75
2023/09/01 00:25:52;;;;;;;2.75;1.50;;;10.30;99.90;;;;;;4983220;28;20030;-74
2023/09/01 00:28:18;;;;;;;6.25;1.40;;;10.20;99.90;;;;;;5004201;28;20042;-75
2023/09/01 00:30:51;;;;;;;3.08;1.50;;;10.20;99.90;;;;;;5001843;28;20073;-75
2023/09/01 00:33:17;;;;;;;4.90;1.77;;;10.30;99.90;;;;;;4987548;28;20046;-75
2023/09/01 00:35:42;;;;;;;3.78;1.40;;;10.30;99.90;;;;;;4986145;28;20050;-75
2023/09/01 00:38:08;;;;;;;6.15;1.58;;;10.20;99.90;;;;;;4985035;28;20092;-75
2023/09/01 00:40:33;;;;;;;2.50;1.50;;;10.30;99.90;;;;;;4985341;28;20096;-75
2023/09/01 00:42:59;;;;;;;3.90;1.50;;;10.30;99.90;;;;;;4986375;28;20113;-75
2023/09/01 00:45:25;;;;;;;2.55;1.35;;;10.20;99.90;;;;;;5002192;28;20042;-75
2023/09/01 00:47:50;;;;;;;2.67;1.35;;;10.20;99.90;;;;;;4986563;28;20501;-75
2023/09/01 00:50:16;;;;;;;3.22;1.58;;;10.10;99.90;;;;;;5002462;28;20042;-74
2023/09/01 00:52:42;;;;;;;2.95;1.40;;;10.10;99.90;;;;;;4983992;28;20108;-75
2023/09/01 00:55:07;;;;;;;3.50;1.48;;;10.10;99.90;;;;;;4984242;28;20035;-75
2023/09/01 00:57:33;;;;;;;2.42;1.35;;;10.10;99.90;;;;;;4981732;28;20038;-75
2023/09/01 00:59:59;;;;;;;2.88;1.60;;;10.00;99.90;;;;;;4968232;28;20038;-74
2023/09/01 01:02:26;;;;;;;2.22;1.55;;;10.00;99.90;;;;;;4996875;28;20252;-75
2023/09/01 01:04:53;;;;;;;2.55;1.67;;;9.90;99.90;;;;;;4997026;28;20124;-75
2023/09/01 01:07:41;;;;;;;3.92;1.60;;;9.90;99.90;;;;;;4984993;28;20445;-75
2023/09/01 01:10:13;;;;;;;4.13;2.20;;;9.80;99.90;;;;;;4993836;28;20050;-75
2023/09/01 01:12:48;;;;;;;2.67;1.90;;;9.80;99.90;;;;;;4980960;28;20129;-75
2023/09/01 01:15:15;;;;;;;4.95;2.10;;;9.80;99.90;;;;;;4976724;28;20051;-75
2023/09/01 01:17:44;;;;;;;2.78;2.05;;;9.80;99.90;;;;;;4983166;28;20085;-75
2023/09/01 01:20:16;;;;;;;4.93;2.40;;;9.70;99.90;;;;;;4986104;28;20108;-75
2023/09/01 01:22:48;;;;;;;3.30;2.35;;;9.70;99.90;;;;;;4967964;28;20045;-74
2023/09/01 01:25:13;;;;;;;5.32;2.67;;;9.80;99.90;;;;;;4983707;28;20074;-74
2023/09/01 01:27:42;;;;;;;6.55;2.40;;;9.70;99.90;;;;;;4992945;28;20185;-75
2023/09/01 01:30:15;;;;;;;3.38;2.30;;;9.60;99.90;;;;;;4972554;28;20112;-74
2023/09/01 01:32:45;;;;;;;3.42;1.50;;;9.70;99.90;;;;;;4965808;28;20046;-74
2023/09/01 01:35:26;;;;;;;2.40;1.52;;;9.60;99.90;;;;;;4965578;28;20042;-74
2023/09/01 01:38:20;;;;;;;1.95;1.20;;;9.60;99.90;;;;;;4985257;28;20038;-74
2023/09/01 01:40:50;;;;;;;2.20;1.60;;;9.50;99.90;;;;;;4982688;28;20128;-74
2023/09/01 01:43:22;;;;;;;1.80;1.40;;;9.50;99.90;;;;;;4984331;28;20065;-75
2023/09/01 01:45:48;;;;;;;2.45;1.40;;;9.50;99.90;;;;;;4984048;28;20053;-74
2023/09/01 01:48:14;;;;;;;3.33;1.55;;;9.50;99.90;;;;;;4982558;28;20046;-75
2023/09/01 01:50:41;;;;;;;5.90;1.77;;;9.50;99.90;;;;;;4983782;28;20046;-75
2023/09/01 01:53:07;;;;;;;4.15;1.75;;;9.50;99.90;;;;;;5001220;28;20047;-75
2023/09/01 01:55:35;;;;;;;3.25;1.95;;;9.50;99.90;;;;;;4985251;28;20484;-75
2023/09/01 01:58:01;;;;;;;3.35;1.95;;;9.60;99.90;;;;;;4996728;28;20042;-74
2023/09/01 02:00:27;;;;;;;4.45;2.03;;;9.60;99.90;;;;;;4985328;28;20096;-75
2023/09/01 02:02:54;;;;;;;5.25;1.65;;;9.60;99.90;;;;;;4970768;28;20069;-74
2023/09/01 02:05:19;;;;;;;3.08;1.83;;;9.70;99.90;;;;;;4984899;28;20042;-75
2023/09/01 02:07:45;;;;;;;3.22;1.83;;;9.70;99.90;;;;;;4965978;28;21715;-74
2023/09/01 02:10:11;;;;;;;4.05;1.42;;;9.70;99.90;;;;;;4977947;28;20034;-74
2023/09/01 02:12:36;;;;;;;3.17;1.85;;;9.80;99.90;;;;;;4981937;28;20481;-75
2023/09/01 02:15:03;;;;;;;4.30;1.85;;;9.70;99.90;;;;;;4985061;28;20249;-75
2023/09/01 02:17:29;;;;;;;6.60;2.30;;;9.80;99.90;;;;;;4982389;28;20042;-75
2023/09/01 02:19:56;;;;;;;5.90;2.25;;;10.10;99.90;;;;;;4975764;28;20049;-75
2023/09/01 02:22:22;;;;;;;3.75;1.70;;;10.00;99.90;;;;;;4988212;28;20644;-75
2023/09/01 02:24:48;;;;;;;3.40;1.70;;;10.00;99.90;;;;;;4987724;28;20038;-76
2023/09/01 02:27:13;;;;;;;3.20;1.52;;;10.10;99.90;;;;;;4982331;28;20046;-73
2023/09/01 02:29:39;;;;;;;3.10;1.65;;;10.10;99.90;;;;;;4988257;28;20089;-74
2023/09/01 02:32:06;;;;;;;2.85;1.45;;;10.10;99.90;;;;;;4966528;28;20556;-74
2023/09/01 02:34:32;;;;;;;4.65;1.88;;;10.10;99.90;;;;;;4982460;28;20122;-74
2023/09/01 02:36:58;;;;;;;3.38;1.65;;;10.00;99.90;;;;;;4984191;28;20120;-74
2023/09/01 02:39:24;;;;;;;3.13;1.95;;;10.00;99.90;;;;;;4983082;28;20224;-74
2023/09/01 02:41:49;;;;;;;2.75;1.80;;;10.00;99.90;;;;;;4991844;28;20121;-74
2023/09/01 02:44:15;;;;;;;3.30;1.90;;;10.00;99.90;;;;;;4984552;28;20185;-74
2023/09/01 02:46:40;;;;;;;3.58;1.83;;;10.00;99.90;;;;;;4977994;28;20058;-74
2023/09/01 02:49:06;;;;;;;2.90;1.70;;;10.00;99.90;;;;;;4966557;28;20038;-74
2023/09/01 02:51:32;;;;;;;3.20;1.60;;;10.00;99.90;;;;;;4983159;28;20528;-74
2023/09/01 02:53:58;;;;;;;3.10;1.85;;;10.10;99.90;;;;;;4981954;28;20109;-74
2023/09/01 02:56:23;;;;;;;1.80;1.20;;;10.10;99.90;;;;;;4990903;28;20038;-74
2023/09/01 02:58:49;;;;;;;2.08;1.30;;;9.90;99.90;;;;;;4982249;28;20065;-74
2023/09/01 03:01:15;;;;;;;3.53;1.50;;;10.00;99.90;;;;;;4985616;28;20116;-74
2023/09/01 03:03:41;;;;;;;2.88;1.75;;;9.90;99.90;;;;;;4981745;28;20044;-74
2023/09/01 03:06:10;;;;;;;3.30;1.30;;;9.90;99.90;;;;;;4985591;28;20038;-74
2023/09/01 03:08:37;;;;;;;3.15;1.60;;;9.90;99.90;;;;;;4981414;28;20571;-74
2023/09/01 03:11:03;;;;;;;2.03;1.33;;;9.80;99.90;;;;;;4989038;28;20121;-74
2023/09/01 03:13:29;;;;;;;1.83;1.08;;;9.70;99.90;;;;;;4977928;28;20465;-74
2023/09/01 03:15:55;;;;;;;2.47;1.50;;;9.60;99.90;;;;;;4986312;28;20117;-74
2023/09/01 03:18:22;;;;;;;3.50;1.50;;;9.50;99.90;;;;;;4985635;28;20046;-74
2023/09/01 03:20:49;;;;;;;2.67;1.67;;;9.50;99.90;;;;;;4998641;28;20042;-74
2023/09/01 03:23:15;;;;;;;2.35;1.30;;;9.40;99.90;;;;;;4987993;28;20053;-74
2023/09/01 03:25:40;;;;;;;3.65;1.60;;;9.40;99.90;;;;;;5002968;28;20491;-74
2023/09/01 03:28:06;;;;;;;2.53;1.77;;;9.40;99.90;;;;;;4987826;28;20772;-74
2023/09/01 03:30:31;;;;;;;2.80;1.92;;;9.30;99.90;;;;;;5005100;28;20062;-74
2023/09/01 03:32:57;;;;;;;6.13;2.20;;;9.30;99.90;;;;;;4987375;28;20041;-74
2023/09/01 03:35:23;;;;;;;3.28;1.70;;;9.30;99.90;;;;;;4985760;28;20034;-74
2023/09/01 03:37:49;;;;;;;4.78;1.67;;;9.30;99.90;;;;;;4976771;28;20077;-74
2023/09/01 03:40:15;;;;;;;4.05;1.63;;;9.40;99.90;;;;;;4983368;28;20100;-74
2023/09/01 03:42:41;;;;;;;3.55;1.55;;;9.30;99.90;;;;;;4966421;28;20038;-74
2023/09/01 03:45:07;;;;;;;5.10;1.70;;;9.30;99.90;;;;;;4977388;28;20053;-74
2023/09/01 03:47:33;;;;;;;3.83;1.50;;;9.30;99.90;;;;;;5004450;28;20061;-74
2023/09/01 03:49:58;;;;;;;3.30;1.73;;;9.30;99.90;;;;;;5002782;28;20716;-74
2023/09/01 03:52:24;;;;;;;2.17;1.60;;;9.20;99.90;;;;;;4987866;28;20066;-74
2023/09/01 03:54:50;;;;;;;1.50;1.30;;;9.20;99.90;;;;;;4987109;28;20037;-74
2023/09/01 03:57:16;;;;;;;2.30;1.55;;;9.10;99.90;;;;;;4984308;28;20101;-74
2023/09/01 03:59:42;;;;;;;4.78;1.80;;;9.10;99.90;;;;;;4982772;28;20125;-75
2023/09/01 04:02:08;;;;;;;2.22;1.33;;;9.10;99.90;;;;;;4985687;28;20077;-75
2023/09/01 04:04:34;;;;;;;2.58;1.50;;;9.00;99.90;;;;;;4983542;28;20077;-75
2023/09/01 04:06:59;;;;;;;3.25;1.80;;;9.00;99.90;;;;;;4972988;28;20041;-75
2023/09/01 04:09:25;;;;;;;4.15;1.95;;;9.00;99.90;;;;;;4991853;28;20038;-74
2023/09/01 04:11:50;;;;;;;5.97;2.10;;;9.00;99.90;;;;;;5003217;28;20467;-74
2023/09/01 04:14:16;;;;;;;2.50;1.58;;;9.10;99.90;;;;;;4986976;28;20046;-74
2023/09/01 04:16:42;;;;;;;1.77;1.30;;;9.10;99.90;;;;;;4987678;28;20116;-74
2023/09/01 04:19:07;;;;;;;6.60;1.85;;;9.10;99.90;;;;;;4989706;28;20030;-74
2023/09/01 04:21:33;;;;;;;2.95;1.77;;;9.20;99.90;;;;;;4986099;28;20045;-74
2023/09/01 04:23:58;;;;;;;3.70;1.60;;;9.50;99.90;;;;;;4986374;28;20152;-74
2023/09/01 04:26:25;;;;;;;3.38;1.85;;;9.30;99.90;;;;;;4981178;28;20133;-74
2023/09/01 04:28:51;;;;;;;2.78;1.65;;;9.30;99.90;;;;;;4998844;28;20034;-74
2023/09/01 04:31:25;;;;;;;2.60;1.60;;;9.30;99.90;;;;;;4998472;28;20744;-74
2023/09/01 04:33:50;;;;;;;4.32;2.17;;;9.30;99.90;;;;;;5001702;28;20125;-74
2023/09/01 04:36:16;;;;;;;4.93;1.92;;;9.30;99.90;;;;;;4986193;28;20120;-74
2023/09/01 04:38:42;;;;;;;5.72;2.08;;;9.30;99.90;;;;;;4971611;28;20513;-74
2023/09/01 04:41:08;;;;;;;3.80;2.28;;;9.30;99.90;;;;;;5001365;28;20030;-74
2023/09/01 04:43:33;;;;;;;4.72;1.88;;;9.30;99.90;;;;;;4980466;28;20042;-73
2023/09/01 04:45:59;;;;;;;4.05;2.00;;;9.30;99.90;;;;;;5008819;28;20053;-74
2023/09/01 04:48:28;;;;;;;5.80;2.20;;;9.30;99.90;;;;;;4983430;28;20038;-74
2023/09/01 04:50:54;;;;;;;3.70;2.05;;;9.30;99.90;;;;;;4987186;28;20038;-73
2023/09/01 04:53:21;;;;;;;3.20;1.85;;;9.40;99.90;;;;;;4984531;28;20042;-74
2023/09/01 04:55:47;;;;;;;4.20;1.50;;;9.40;99.90;;;;;;4989153;28;20124;-74
2023/09/01 04:58:13;;;;;;;4.18;2.00;;;9.80;99.90;;;;;;4999007;28;20046;-73
2023/09/01 05:00:39;;;;;;;4.22;2.03;;;9.50;99.90;;;;;;4998984;28;20031;-74
2023/09/01 05:03:04;;;;;;;3.45;2.20;;;9.50;99.90;;;;;;5002742;28;20077;-73
2023/09/01 05:05:30;;;;;;;5.60;2.50;;;9.50;99.90;;;;;;4986023;28;20481;-74
2023/09/01 05:07:56;;;;;;;4.18;2.47;;;9.50;99.90;;;;;;4971435;28;20519;-73
2023/09/01 05:10:22;;;;;;;3.50;2.00;;;9.50;99.90;;;;;;4985689;28;20076;-74
2023/09/01 05:12:48;;;;;;;2.53;1.77;;;9.50;99.90;;;;;;4987162;28;20092;-74
2023/09/01 05:15:13;;;;;;;3.53;2.30;;;9.60;99.90;;;;;;4983829;28;20038;-75
2023/09/01 05:17:39;;;;;;;4.70;2.08;;;9.50;99.90;;;;;;4986173;28;20046;-73
2023/09/01 05:20:11;;;;;;;3.33;2.05;;;9.70;99.90;;;;;;5000512;28;20049;-75
2023/09/01 05:22:37;;;;;;;2.90;1.90;;;9.70;99.90;;;;;;4985287;28;20164;-74
2023/09/01 05:25:03;;;;;;;4.30;1.92;;;9.70;99.90;;;;;;4969494;28;20463;-75
2023/09/01 05:27:29;;;;;;;3.85;2.35;;;9.80;99.90;;;;;;4984913;28;20592;-74
2023/09/01 05:29:54;;;;;;;2.13;1.48;;;9.80;99.90;;;;;;4989742;28;20089;-75
2023/09/01 05:32:21;;;;;;;2.97;1.48;;;9.90;99.90;;;;;;4983835;28;20046;-75
2023/09/01 05:34:46;;;;;;;1.75;1.27;;;9.90;99.90;;;;;;5003035;28;20040;-75
2023/09/01 05:37:12;;;;;;;5.07;1.88;;;10.00;99.90;;;;;;4985450;28;20573;-74
2023/09/01 05:39:39;;;;;;;3.90;2.28;;;10.00;99.90;;;;;;4975824;28;20030;-74
2023/09/01 05:42:05;;;;;;;2.30;1.73;;;10.10;99.90;;;;;;5001461;28;20108;-74
2023/09/01 05:44:32;;;;;;;3.15;1.70;;;10.20;99.90;;;;;;5000296;28;20097;-74
2023/09/01 05:46:58;;;;;;;4.55;2.67;;;10.30;99.90;;;;;;4986693;28;20070;-74
2023/09/01 05:49:24;;;;;;;4.28;2.00;;;10.40;99.90;;;;;;4996767;28;20120;-75
2023/09/01 05:51:51;;;;;;;3.03;1.83;;;10.50;99.90;;;;;;4980641;28;20038;-74
2023/09/01 05:54:18;;;;;;;1.80;1.40;;;10.60;99.90;;;;;;4965517;28;20042;-74
2023/09/01 05:56:44;;;;;;;2.97;2.05;;;10.70;99.90;;;;;;4984229;28;20073;-75
2023/09/01 05:59:10;;;;;;;4.43;1.75;;;10.70;99.90;;;;;;5003003;28;20073;-74
2023/09/01 06:01:39;;;;;;;4.28;1.70;;;10.80;99.90;;;;;;4967952;28;20049;-75
2023/09/01 06:04:05;;;;;;;2.13;1.65;;;10.90;99.90;;;;;;4983970;28;20045;-74
2023/09/01 06:06:31;;;;;;;3.90;2.15;;;11.00;99.90;;;;;;4967234;28;20698;-75
2023/09/01 06:09:00;;;;;;;2.95;1.67;;;11.10;99.90;;;;;;4984765;28;20034;-74
2023/09/01 06:11:26;;;;;;;3.58;2.13;;;11.20;99.90;;;;;;4983987;28;20129;-75
2023/09/01 06:13:51;;;;;;;4.78;2.00;;;11.20;99.90;;;;;;4983184;28;20137;-75
2023/09/01 06:16:20;;;;;;;4.82;2.28;;;11.30;99.90;;;;;;4995947;28;20069;-74
2023/09/01 06:18:46;;;;;;;5.70;2.70;;;11.40;99.90;;;;;;4985468;28;20044;-75
2023/09/01 06:21:15;;;;;;;3.28;2.45;;;11.40;99.90;;;;;;4982650;28;21140;-74
2023/09/01 06:23:44;;;;;;;4.72;2.47;;;11.40;99.90;;;;;;4975988;28;20148;-73
2023/09/01 06:26:11;;;;;;;4.72;3.08;;;11.60;99.90;;;;;;4980093;28;20054;-73
2023/09/01 06:28:38;;;;;;;5.05;2.75;;;11.60;99.90;;;;;;4984526;28;20056;-73
2023/09/01 06:31:03;;;;;;;3.47;2.33;;;11.70;99.90;;;;;;4984777;28;20133;-75
2023/09/01 06:33:29;;;;;;;3.85;2.15;;;11.90;99.90;;;;;;4986671;28;20176;-74
2023/09/01 06:35:54;;;;;;;4.13;2.70;;;12.00;99.90;;;;;;4983353;28;20096;-74
2023/09/01 06:38:20;;;;;;;7.55;3.05;;;12.20;99.90;;;;;;4986035;28;20045;-74
2023/09/01 06:40:46;;;;;;;6.93;3.83;;;12.30;99.90;;;;;;4984907;28;20058;-74
2023/09/01 06:43:11;;;;;;;7.32;2.72;;;12.40;99.90;;;;;;4990034;28;20512;-74
2023/09/01 06:45:37;;;;;;;4.75;2.58;;;12.50;99.90;;;;;;4987527;28;20038;-74
2023/09/01 06:48:03;;;;;;;6.63;2.85;;;12.60;99.90;;;;;;4981412;28;20070;-75
2023/09/01 06:50:28;;;;;;;5.10;1.98;;;12.60;99.90;;;;;;4990678;28;20042;-74
2023/09/01 06:52:54;;;;;;;4.95;2.28;;;12.70;99.90;;;;;;4968576;28;20057;-74
2023/09/01 06:55:21;;;;;;;7.75;2.58;;;12.80;99.90;;;;;;4969778;28;20034;-73
2023/09/01 06:57:46;;;;;;;5.05;2.40;;;12.90;99.90;;;;;;4983611;28;20070;-74
2023/09/01 07:00:14;;;;;;;10.73;2.40;;;12.90;99.90;;;;;;4996850;28;20549;-74
2023/09/01 07:02:40;;;;;;;3.80;2.33;;;13.00;99.90;;;;;;4987704;28;20061;-73
2023/09/01 07:05:06;;;;;;;4.93;2.50;;;13.10;99.90;;;;;;4987993;28;20038;-73
2023/09/01 07:07:32;;;;;;;4.18;2.50;;;13.20;99.90;;;;;;4990810;28;20176;-73
2023/09/01 07:09:57;;;;;;;11.77;2.28;;;13.20;99.90;;;;;;5004564;28;20042;-73
2023/09/01 07:12:23;;;;;;;6.13;2.60;;;13.30;99.90;;;;;;4987457;28;20107;-72
2023/09/01 07:14:48;;;;;;;4.55;2.30;;;13.50;99.90;;;;;;4987839;28;20042;-74
2023/09/01 07:17:19;;;;;;;8.38;2.75;;;13.60;99.90;;;;;;4990698;28;20042;-73
2023/09/01 07:19:45;;;;;;;3.00;2.40;;;13.70;99.90;;;;;;4997926;28;20049;-72
2023/09/01 07:22:10;;;;;;;4.95;3.05;;;13.90;99.90;;;;;;4987572;28;20043;-73
2023/09/01 07:24:36;;;;;;;4.75;2.60;;;14.10;99.90;;;;;;4995980;28;20054;-74
2023/09/01 07:27:02;;;;;;;5.75;2.33;;;14.30;99.90;;;;;;4972644;28;20089;-74
2023/09/01 07:29:27;;;;;;;4.47;2.67;;;14.40;99.90;;;;;;4989765;28;20054;-73
2023/09/01 07:31:53;;;;;;;4.30;2.28;;;14.60;99.90;;;;;;5003274;28;20057;-73
2023/09/01 07:34:19;;;;;;;6.90;2.53;;;14.90;99.90;;;;;;4983430;28;20060;-74
2023/09/01 07:36:45;;;;;;;5.47;2.45;;;15.10;99.90;;;;;;5003343;28;20125;-73
2023/09/01 07:39:10;;;;;;;5.15;3.47;;;15.20;99.90;;;;;;4983655;28;20038;-73
2023/09/01 07:41:36;;;;;;;4.32;2.97;;;15.30;99.90;;;;;;4972150;28;20042;-73
2023/09/01 07:44:01;;;;;;;6.15;3.95;;;15.60;99.90;;;;;;4982509;28;20043;-73
2023/09/01 07:46:33;;;;;;;6.93;3.70;;;15.70;99.90;;;;;;5003404;28;20069;-73
2023/09/01 07:48:59;;;;;;;4.65;3.33;;;15.80;99.90;;;;;;4982441;28;20030;-73
2023/09/01 07:51:24;;;;;;;6.13;3.42;;;16.00;99.90;;;;;;4987250;28;20042;-73
2023/09/01 07:53:50;;;;;;;6.40;3.58;;;16.20;99.90;;;;;;4984053;28;20038;-73
2023/09/01 07:56:16;;;;;;;7.15;3.20;;;16.30;99.90;;;;;;4983428;28;21571;-73
2023/09/01 07:58:41;;;;;;;11.93;4.95;;;16.40;99.90;;;;;;4960849;28;20032;-73
2023/09/01 08:01:07;;;;;;;6.57;3.63;;;16.50;99.90;;;;;;5000650;28;20780;-73
2023/09/01 08:03:33;;;;;;;6.05;3.92;;;16.70;99.90;;;;;;4982696;28;20039;-72
2023/09/01 08:05:59;;;;;;;6.45;3.35;;;16.80;99.90;;;;;;4981260;28;20125;-72
2023/09/01 08:08:25;;;;;;;7.75;3.35;;;16.90;99.90;;;;;;4985094;28;20129;-74
2023/09/01 08:10:52;;;;;;;7.03;3.15;;;17.00;99.90;;;;;;4987764;28;20092;-75
2023/09/01 08:13:17;;;;;;;5.35;2.80;;;17.10;99.90;;;;;;4986643;28;20050;-74
2023/09/01 08:15:43;;;;;;;7.75;2.92;;;17.10;99.90;;;;;;4989954;28;20034;-74
2023/09/01 08:18:09;;;;;;;4.47;2.65;;;17.10;99.90;;;;;;4987393;28;20046;-75
2023/09/01 08:20:34;;;;;;;5.07;2.40;;;17.30;99.90;;;;;;4986406;28;20140;-74
2023/09/01 08:23:00;;;;;;;4.15;2.20;;;17.40;99.90;;;;;;4986527;28;20046;-75
2023/09/01 08:25:25;;;;;;;3.90;2.20;;;17.40;99.90;;;;;;4985887;28;20038;-75
2023/09/01 08:27:51;;;;;;;3.40;1.65;;;17.50;99.90;;;;;;4987087;28;20657;-75
2023/09/01 08:30:17;;;;;;;3.13;1.92;;;17.60;99.90;;;;;;4987221;28;20050;-75
2023/09/01 08:32:43;;;;;;;2.80;1.52;;;17.70;99.90;;;;;;4985905;28;20034;-74
2023/09/01 08:35:09;;;;;;;2.83;0.95;;;17.90;99.90;;;;;;4980704;28;20062;-74
2023/09/01 08:37:35;;;;;;;4.28;1.17;;;17.90;99.90;;;;;;4978386;28;20035;-75
2023/09/01 08:40:01;;;;;;;1.92;0.95;;;18.00;99.90;;;;;;4985730;28;20132;-75
2023/09/01 08:42:29;;;;;;;4.18;0.80;;;18.20;99.90;;;;;;4984191;28;20702;-74
2023/09/01 08:44:59;;;;;;;1.50;0.70;;;18.30;99.90;;;;;;4981061;28;20146;-75
2023/09/01 08:47:29;;;;;;;3.17;0.88;;;18.40;99.90;;;;;;4981477;28;20049;-74
2023/09/01 08:49:55;;;;;;;2.42;0.95;;;18.50;99.90;;;;;;4979642;28;20041;-74
2023/09/01 08:52:22;;;;;;;2.85;0.80;;;18.60;99.90;;;;;;4981144;28;20118;-75
2023/09/01 08:54:49;;;;;;;3.15;0.90;;;18.70;99.90;;;;;;4987128;28;20128;-75
2023/09/01 08:57:14;;;;;;;1.92;0.70;;;18.80;73.60;;;;;;4987095;28;20504;-75
2023/09/01 08:59:42;;;;;;;1.83;0.80;;;18.90;1.00;;;;;;4978960;28;20076;-75
2023/09/01 09:02:08;;;;;;;4.22;1.35;;;19.00;1.00;;;;;;4976945;28;20051;-75
2023/09/01 09:04:34;;;;;;;3.85;0.85;;;19.10;34.60;;;;;;4991309;28;20042;-75
2023/09/01 09:07:17;;;;;;;4.75;1.10;;;19.10;45.60;;;;;;4969275;28;20542;-76
2023/09/01 09:09:54;;;;;;;1.75;0.73;;;19.20;99.90;;;;;;4982782;28;20046;-75
2023/09/01 09:12:21;;;;;;;6.97;1.90;;;19.40;99.90;;;;;;5002778;28;20102;-75
2023/09/01 09:14:52;;;;;;;2.08;0.82;;;19.60;99.90;;;;;;4982055;28;20393;-75
2023/09/01 09:17:22;;;;;;;2.78;0.65;;;19.70;99.90;;;;;;4988080;28;20486;-76
2023/09/01 09:19:59;;;;;;;2.53;0.90;;;19.80;99.90;;;;;;4985290;28;20131;-74
2023/09/01 09:22:25;;;;;;;2.25;0.70;;;19.90;99.90;;;;;;4987135;28;20054;-75
2023/09/01 09:24:50;;;;;;;3.03;1.10;;;20.20;99.90;;;;;;4981971;28;20053;-75
2023/09/01 09:27:17;;;;;;;3.47;1.00;;;20.50;99.90;;;;;;4981172;28;20042;-75
2023/09/01 09:29:45;;;;;;;2.50;0.95;;;20.70;99.90;;;;;;5002074;28;20081;-75
2023/09/01 09:32:23;;;;;;;1.92;0.98;;;21.00;99.90;;;;;;4998345;28;20052;-75
2023/09/01 09:35:09;;;;;;;3.67;1.17;;;21.20;99.90;;;;;;4988190;28;20562;-74
2023/09/01 09:37:36;;;;;;;3.33;1.20;;;21.40;99.90;;;;;;4983620;28;20052;-74
2023/09/01 09:40:16;;;;;;;3.08;1.00;;;21.50;99.90;;;;;;4983890;28;20038;-75
2023/09/01 09:42:44;;;;;;;2.65;0.82;;;21.50;99.90;;;;;;4978054;28;20050;-74
2023/09/01 09:45:28;;;;;;;2.42;0.93;;;21.50;99.90;;;;;;4982744;28;20054;-75
2023/09/01 09:48:06;;;;;;;2.15;1.00;;;21.40;99.90;;;;;;4984068;28;20050;-75
2023/09/01 09:50:34;;;;;;;2.38;1.00;;;21.40;99.90;;;;;;4984550;28;20046;-75
2023/09/01 09:53:05;;;;;;;2.22;1.13;;;21.50;99.90;;;;;;4984263;28;20038;-74
2023/09/01 09:55:48;;;;;;;2.40;0.98;;;21.60;99.90;;;;;;4982732;28;20039;-75
2023/09/01 09:58:17;;;;;;;2.30;1.23;;;21.60;99.90;;;;;;4988927;28;20489;-73
2023/09/01 10:00:51;;;;;;;4.25;1.20;;;21.50;99.90;;;;;;4985312;28;20057;-74
2023/09/01 10:03:19;;;;;;;4.15;1.48;;;21.40;99.90;;;;;;4997944;28;20409;-75
2023/09/01 10:05:45;;;;;;;2.80;1.40;;;21.40;99.90;;;;;;4966649;28;20092;-75
2023/09/01 10:08:12;;;;;;;2.33;1.80;;;21.40;99.90;;;;;;4969084;28;20042;-75
2023/09/01 10:10:38;;;;;;;6.35;1.70;;;21.40;99.90;;;;;;4990294;28;20384;-75
2023/09/01 10:13:09;;;;;;;5.07;2.22;;;21.50;99.90;;;;;;4978137;28;20038;-75
2023/09/01 10:15:36;;;;;;;4.60;2.40;;;21.50;99.90;;;;;;4968198;28;20093;-75
2023/09/01 10:18:04;;;;;;;4.15;2.30;;;21.50;99.90;;;;;;4985497;28;20129;-75
2023/09/01 10:20:35;;;;;;;5.18;3.13;;;21.50;99.90;;;;;;4972681;28;20120;-73
2023/09/01 10:23:04;;;;;;;4.32;2.53;;;21.50;99.90;;;;;;4981122;28;20117;-73
2023/09/01 10:25:31;;;;;;;5.75;2.60;;;21.40;99.90;;;;;;4991705;28;20144;-76
2023/09/01 10:28:12;;;;;;;4.50;2.40;;;21.30;99.90;;;;;;4969305;28;20409;-75
2023/09/01 10:30:43;;;;;;;4.68;2.92;;;21.30;99.90;;;;;;4968662;28;20076;-74
2023/09/01 10:33:26;;;;;;;7.18;3.15;;;21.30;99.90;;;;;;4965959;28;20031;-75
2023/09/01 10:35:53;;;;;;;5.93;2.80;;;21.20;99.90;;;;;;4997859;28;20617;-75
2023/09/01 10:38:35;;;;;;;4.25;2.30;;;21.10;99.90;;;;;;4959286;28;20084;-74
2023/09/01 10:41:01;;;;;;;4.68;2.60;;;21.00;99.90;;;;;;5001945;28;20042;-75
2023/09/01 10:43:36;;;;;;;5.85;2.25;;;20.80;99.90;;;;;;4969689;28;20100;-73
2023/09/01 10:46:14;;;;;;;5.10;2.17;;;20.80;99.90;;;;;;4968986;28;20053;-75
2023/09/01 10:48:57;;;;;;;5.65;2.65;;;20.80;99.90;;;;;;4976105;28;20058;-73
2023/09/01 10:51:33;;;;;;;5.97;2.70;;;20.80;99.90;;;;;;4997480;28;20042;-75
2023/09/01 10:54:00;;;;;;;4.63;2.60;;;20.90;99.90;;;;;;4982706;28;20246;-75
2023/09/01 10:56:27;;;;;;;6.60;2.60;;;21.10;99.90;;;;;;4993550;28;20044;-76
2023/09/01 10:58:55;;;;;;;4.40;2.33;;;21.40;99.90;;;;;;4974378;28;20480;-73
2023/09/01 11:01:24;;;;;;;4.57;2.55;;;21.50;99.90;;;;;;4958471;28;20043;-75
2023/09/01 11:03:50;;;;;;;5.38;3.35;;;21.70;99.90;;;;;;4979367;28;20052;-75
2023/09/01 11:06:16;;;;;;;7.68;2.70;;;22.00;99.90;;;;;;4988211;28;20042;-75
2023/09/01 11:08:55;;;;;;;7.68;3.67;;;22.20;99.90;;;;;;4967108;28;20100;-75
2023/09/01 11:11:21;;;;;;;4.18;2.50;;;22.90;99.90;;;;;;4981672;28;20201;-75
2023/09/01 11:13:53;;;;;;;4.95;3.03;;;23.80;99.90;;;;;;4958651;28;20457;-75
2023/09/01 11:16:18;;;;;;;6.32;2.70;;;24.10;99.90;;;;;;4984982;28;20485;-75
2023/09/01 11:18:46;;;;;;;4.78;2.60;;;24.20;99.90;;;;;;4974087;28;20049;-76
2023/09/01 11:21:11;;;;;;;7.13;4.10;;;24.20;99.90;;;;;;4980592;28;20047;-75
2023/09/01 11:23:37;;;;;;;7.03;4.18;;;24.20;99.90;;;;;;4967719;28;20441;-75
2023/09/01 11:26:04;;;;;;;10.05;4.28;;;24.30;97.60;;;;;;4993773;28;20668;-76
2023/09/01 11:28:29;;;;;;;7.68;4.78;;;24.60;96.00;;;;;;4981224;28;20049;-75
2023/09/01 11:31:03;;;;;;;10.63;5.95;;;24.80;93.90;;;;;;4980462;28;20085;-75
2023/09/01 11:33:33;;;;;;;8.35;5.68;;;25.00;91.20;;;;;;4984143;28;20061;-75
2023/09/01 11:36:10;;;;;;;10.00;5.63;;;25.20;89.50;;;;;;4992274;28;20038;-75
2023/09/01 11:38:36;;;;;;;9.57;5.18;;;25.40;83.10;;;;;;4995271;28;20037;-75
2023/09/01 11:41:07;;;;;;;8.65;5.25;;;25.40;82.10;;;;;;4999931;28;20418;-75
2023/09/01 11:43:33;;;;;;;8.63;5.85;;;25.20;77.90;;;;;;4980238;28;20058;-75
2023/09/01 11:45:59;;;;;;;8.80;5.18;;;25.00;78.30;;;;;;4997454;28;20033;-75
2023/09/01 11:48:26;;;;;;;8.75;5.15;;;24.90;78.10;;;;;;4988818;28;20547;-75
2023/09/01 11:50:57;;;;;;;9.00;5.78;;;24.90;78.40;;;;;;4985735;28;20050;-75
2023/09/01 11:53:23;;;;;;;8.35;5.75;;;24.80;78.60;;;;;;4998795;28;20046;-78
2023/09/01 11:55:50;;;;;;;9.23;6.15;;;24.70;79.70;;;;;;4993896;28;20427;-78
2023/09/01 11:58:15;;;;;;;9.57;6.53;;;24.50;78.70;;;;;;5003731;28;20121;-78
2023/09/01 12:00:42;;;;;;;9.25;6.50;;;24.40;79.50;;;;;;4989081;28;20121;-78
2023/09/01 12:03:08;;;;;;;9.65;5.88;;;24.20;79.60;;;;;;4984057;28;20133;-78
2023/09/01 12:05:36;;;;;;;9.40;5.00;;;24.00;80.60;;;;;;4987010;28;20049;-78
2023/09/01 12:08:03;;;;;;;9.57;6.13;;;24.10;80.60;;;;;;4988335;28;20636;-79
2023/09/01 12:10:29;;;;;;;8.02;5.55;;;24.30;80.50;;;;;;4975395;28;20469;-78
2023/09/01 12:13:24;;;;;;;11.55;6.10;;;24.30;80.60;;;;;;4973044;28;20104;-78
2023/09/01 12:16:01;;;;;;;10.45;6.88;;;24.70;77.20;;;;;;4978740;28;20583;-78
2023/09/01 12:18:40;;;;;;;8.48;6.15;;;24.80;75.10;;;;;;4969674;28;20042;-78
2023/09/01 12:21:08;;;;;;;10.40;6.72;;;24.50;74.40;;;;;;4985662;28;20046;-78
2023/09/01 12:23:36;;;;;;;9.18;6.05;;;24.30;76.30;;;;;;4989494;28;20111;-79
2023/09/01 12:26:02;;;;;;;8.73;5.82;;;25.00;76.60;;;;;;4989310;28;20046;-79
2023/09/01 12:28:30;;;;;;;11.95;6.28;;;26.00;72.30;;;;;;5005063;28;20438;-75
2023/09/01 12:30:57;;;;;;;10.95;6.13;;;26.30;66.90;;;;;;4982537;28;20125;-73
2023/09/01 12:33:23;;;;;;;7.28;5.43;;;26.30;65.30;;;;;;4988168;28;20046;-75
2023/09/01 12:35:50;;;;;;;8.75;5.60;;;26.40;64.80;;;;;;4983444;28;20045;-75
2023/09/01 12:38:16;;;;;;;9.73;5.65;;;26.40;64.40;;;;;;4993249;28;20124;-76
2023/09/01 12:40:41;;;;;;;6.68;5.13;;;26.40;64.20;;;;;;4999713;28;20073;-76
2023/09/01 12:43:07;;;;;;;5.88;4.43;;;26.30;62.90;;;;;;4988271;28;20104;-76
2023/09/01 12:45:32;;;;;;;7.53;4.93;;;26.30;63.40;;;;;;4970279;28;20132;-76
2023/09/01 12:48:02;;;;;;;9.20;4.63;;;25.90;61.80;;;;;;4986243;28;20584;-76
2023/09/01 12:50:31;;;;;;;9.02;4.70;;;25.70;64.60;;;;;;4987071;28;20053;-76
2023/09/01 12:52:57;;;;;;;6.45;4.60;;;25.50;64.10;;;;;;4984158;28;20039;-75
2023/09/01 12:55:27;;;;;;;8.65;4.60;;;25.10;65.90;;;;;;4964538;28;20038;-74
2023/09/01 12:57:56;;;;;;;10.25;5.10;;;24.80;67.30;;;;;;4975903;28;20096;-75
2023/09/01 13:00:22;;;;;;;7.78;4.70;;;24.60;68.90;;;;;;4988062;28;20048;-76
2023/09/01 13:02:52;;;;;;;6.25;4.40;;;24.50;69.20;;;;;;4996795;28;20030;-76